Time;durP1;ratioP1;P1;durP2;ratioP2;P2;SDS_P1;SDS_P2;PMS_P1;PMS_P2;Temp;Humidity;BMP_temperature;BMP_pressure;BME280_temperature;BME280_humidity;BME280_pressure;Samples;Min_cycle;Max_cycle;Signal;HPM_P1;HPM_P2
2023/07/18 00:01:59;;;;;;;19.67;17.63;;;691.70;2432.00;;;;;;5090779;28;20462;-61
2023/07/18 00:04:28;;;;;;;18.75;17.05;;;691.60;2432.00;;;;;;5091165;28;20478;-64
2023/07/18 00:06:54;;;;;;;17.92;16.05;;;691.30;2432.00;;;;;;5091278;28;20020;-61
2023/07/18 00:09:20;;;;;;;20.08;16.40;;;691.70;2432.00;;;;;;5090874;28;20027;-61
2023/07/18 00:11:47;;;;;;;18.63;16.95;;;691.70;2432.00;;;;;;5091097;28;20019;-60
2023/07/18 00:14:13;;;;;;;18.02;16.42;;;691.60;2432.00;;;;;;5090856;28;20024;-66
2023/07/18 00:16:39;;;;;;;19.88;17.88;;;691.40;2432.00;;;;;;5090368;28;20039;-66
2023/07/18 00:19:05;;;;;;;18.92;17.08;;;691.40;2432.00;;;;;;5090965;28;20060;-60
2023/07/18 00:21:31;;;;;;;21.33;19.00;;;691.40;2432.00;;;;;;5090641;28;20709;-61
2023/07/18 00:23:58;;;;;;;18.45;16.75;;;691.40;2432.00;;;;;;5090797;28;20024;-61
2023/07/18 00:26:24;;;;;;;20.70;18.75;;;691.40;2432.00;;;;;;5090934;28;20031;-59
2023/07/18 00:28:53;;;;;;;20.35;18.45;;;691.30;2432.00;;;;;;5090482;28;20020;-61
2023/07/18 00:31:19;;;;;;;21.80;17.23;;;691.30;2432.00;;;;;;5090025;28;20495;-61
2023/07/18 00:33:45;;;;;;;19.08;17.17;;;691.20;2432.00;;;;;;5089998;28;20382;-61
2023/07/18 00:36:11;;;;;;;19.73;17.85;;;691.20;2432.00;;;;;;5090416;28;20028;-60
2023/07/18 00:38:37;;;;;;;18.13;16.20;;;691.20;2432.00;;;;;;5090279;28;20024;-61
2023/07/18 00:41:04;;;;;;;19.58;16.30;;;691.20;2432.00;;;;;;5090485;28;20020;-61
2023/07/18 00:43:33;;;;;;;18.73;16.60;;;691.20;2432.00;;;;;;5090357;28;20047;-60
2023/07/18 00:46:01;;;;;;;19.00;17.00;;;691.20;2432.00;;;;;;5090062;28;20028;-61
2023/07/18 00:48:33;;;;;;;19.02;17.30;;;691.20;2432.00;;;;;;5089920;28;20054;-61
2023/07/18 00:51:07;;;;;;;20.98;16.17;;;666.50;2432.00;;;;;;5090076;28;20016;-61
2023/07/18 00:53:33;;;;;;;23.33;14.70;;;691.20;2432.00;;;;;;5089999;28;20470;-63
2023/07/18 00:56:00;;;;;;;17.05;14.52;;;691.20;2432.00;;;;;;5090096;28;20412;-66
2023/07/18 00:58:28;;;;;;;17.23;15.60;;;691.30;2432.00;;;;;;5090605;28;20386;-61
2023/07/18 01:00:54;;;;;;;16.63;14.95;;;691.30;2432.00;;;;;;5090113;28;20043;-67
2023/07/18 01:03:20;;;;;;;16.23;14.63;;;691.30;2432.00;;;;;;5089758;28;20028;-60
2023/07/18 01:05:46;;;;;;;16.40;14.80;;;691.30;2432.00;;;;;;5090086;28;20035;-61
2023/07/18 01:08:12;;;;;;;19.15;15.45;;;691.30;2432.00;;;;;;5089777;28;20386;-62
2023/07/18 01:10:38;;;;;;;14.82;13.38;;;691.30;2432.00;;;;;;5088446;28;20060;-61
2023/07/18 01:13:04;;;;;;;18.77;15.05;;;691.30;2432.00;;;;;;5089866;28;20111;-61
2023/07/18 01:15:34;;;;;;;16.45;14.63;;;691.30;2432.00;;;;;;5090077;28;20714;-61
2023/07/18 01:18:04;;;;;;;15.57;14.05;;;691.40;2432.00;;;;;;5089329;28;20499;-66
2023/07/18 01:20:31;;;;;;;18.67;15.23;;;691.40;2432.00;;;;;;5089714;28;20044;-66
2023/07/18 01:22:59;;;;;;;16.20;14.50;;;691.30;2432.00;;;;;;5089425;28;20492;-61
2023/07/18 01:25:26;;;;;;;16.50;14.75;;;691.30;2432.00;;;;;;5090082;28;20028;-67
2023/07/18 01:27:54;;;;;;;16.27;14.07;;;691.30;2432.00;;;;;;5090065;28;20070;-61
2023/07/18 01:30:25;;;;;;;15.00;13.45;;;691.30;2432.00;;;;;;5089284;28;20086;-61
2023/07/18 01:32:52;;;;;;;15.52;13.68;;;691.30;2432.00;;;;;;5089355;28;20025;-67
2023/07/18 01:35:20;;;;;;;18.65;14.77;;;691.20;2432.00;;;;;;5089335;28;20504;-62
2023/07/18 01:37:48;;;;;;;15.60;14.00;;;691.20;2432.00;;;;;;5089203;28;20378;-61
2023/07/18 01:40:19;;;;;;;14.68;13.20;;;691.20;2432.00;;;;;;5089799;28;20125;-62
2023/07/18 01:42:46;;;;;;;15.35;13.85;;;691.20;2432.00;;;;;;5089290;28;20497;-61
2023/07/18 01:45:12;;;;;;;18.15;14.27;;;691.20;2432.00;;;;;;5089317;28;20036;-66
2023/07/18 01:47:39;;;;;;;17.50;14.05;;;691.20;2432.00;;;;;;5088854;28;20071;-61
2023/07/18 01:50:07;;;;;;;17.48;14.20;;;666.50;2432.00;;;;;;5089317;28;20035;-62
2023/07/18 01:52:33;;;;;;;16.45;13.68;;;666.50;2432.00;;;;;;5089484;28;20039;-61
2023/07/18 01:55:00;;;;;;;16.88;13.32;;;666.50;2432.00;;;;;;5089238;28;20024;-67
2023/07/18 01:57:40;;;;;;;15.10;13.50;;;666.40;2432.00;;;;;;5089771;28;20032;-62
2023/07/18 02:00:10;;;;;;;16.65;12.52;;;666.30;2432.00;;;;;;5088886;28;20042;-65
2023/07/18 02:02:36;;;;;;;19.63;13.35;;;666.50;2432.00;;;;;;5089161;28;20028;-63
2023/07/18 02:05:04;;;;;;;18.13;13.98;;;666.50;2432.00;;;;;;5088915;28;20035;-61
2023/07/18 02:07:30;;;;;;;22.20;15.38;;;666.40;2432.00;;;;;;5089018;28;20025;-63
2023/07/18 02:09:56;;;;;;;17.38;14.45;;;666.40;2432.00;;;;;;5089110;28;20366;-59
2023/07/18 02:12:22;;;;;;;16.88;13.88;;;666.30;2432.00;;;;;;5089364;28;20118;-62
2023/07/18 02:14:48;;;;;;;17.67;14.52;;;666.30;2432.00;;;;;;5088763;28;20473;-60
2023/07/18 02:17:13;;;;;;;16.88;15.20;;;666.20;2432.00;;;;;;5088847;28;20036;-62
2023/07/18 02:19:40;;;;;;;16.73;15.02;;;666.10;2432.00;;;;;;5088802;28;20374;-67
2023/07/18 02:22:05;;;;;;;18.67;14.80;;;666.10;2432.00;;;;;;5089339;28;20116;-63
2023/07/18 02:24:32;;;;;;;18.52;14.55;;;666.00;2432.00;;;;;;5088782;28;20128;-60
2023/07/18 02:26:58;;;;;;;18.55;15.15;;;666.00;2432.00;;;;;;5088719;28;20085;-63
2023/07/18 02:29:25;;;;;;;16.20;14.60;;;665.90;2432.00;;;;;;5088933;28;20074;-61
2023/07/18 02:31:51;;;;;;;16.75;15.05;;;665.90;2432.00;;;;;;5088526;28;20035;-59
2023/07/18 02:34:17;;;;;;;16.08;13.75;;;665.80;2432.00;;;;;;5088503;28;20024;-61
2023/07/18 02:36:43;;;;;;;18.27;15.32;;;665.70;2432.00;;;;;;5089149;28;20016;-67
2023/07/18 02:39:10;;;;;;;18.63;16.73;;;;;;;;;;5088531;28;20488;-60
2023/07/18 02:41:37;;;;;;;23.10;17.27;;;;;;;;;;5088911;28;20034;-60
2023/07/18 02:44:03;;;;;;;17.60;15.90;;;;;;;;;;5088745;28;20019;-63
2023/07/18 02:46:29;;;;;;;17.48;15.65;;;640.70;2432.00;;;;;;5088264;28;20028;-61
2023/07/18 02:48:54;;;;;;;18.90;16.02;;;640.50;2432.00;;;;;;5088640;28;20474;-60
2023/07/18 02:51:20;;;;;;;18.33;16.10;;;640.30;2432.00;;;;;;5088486;28;20036;-61
2023/07/18 02:53:46;;;;;;;16.80;14.95;;;640.20;2432.00;;;;;;5088753;28;20028;-64
2023/07/18 02:56:12;;;;;;;17.83;15.93;;;640.30;2432.00;;;;;;5090961;28;20012;-62
2023/07/18 02:58:37;;;;;;;22.80;17.00;;;640.40;2432.00;;;;;;5092341;28;20087;-61
2023/07/18 03:01:03;;;;;;;20.02;17.98;;;640.30;2432.00;;;;;;5092413;28;20030;-59
2023/07/18 03:03:30;;;;;;;18.90;16.88;;;640.20;2432.00;;;;;;5092151;28;20051;-66
2023/07/18 03:05:56;;;;;;;16.60;14.80;;;640.20;2432.00;;;;;;5092594;28;20409;-66
2023/07/18 03:08:22;;;;;;;18.92;16.98;;;640.20;2432.00;;;;;;5092308;28;20115;-65
2023/07/18 03:10:49;;;;;;;18.52;16.42;;;640.10;2432.00;;;;;;5092291;28;20052;-62
2023/07/18 03:13:14;;;;;;;19.27;16.23;;;640.20;2432.00;;;;;;5092347;28;20024;-60
2023/07/18 03:15:41;;;;;;;17.17;15.48;;;640.20;2432.00;;;;;;5091754;28;20031;-60
2023/07/18 03:18:07;;;;;;;19.55;14.68;;;640.20;2432.00;;;;;;5091835;28;20474;-60
2023/07/18 03:20:33;;;;;;;15.93;14.27;;;640.40;2432.00;;;;;;5092152;28;20028;-60
2023/07/18 03:22:58;;;;;;;17.88;15.90;;;640.40;2432.00;;;;;;5091955;28;20028;-60
2023/07/18 03:25:24;;;;;;;16.50;14.63;;;640.50;2432.00;;;;;;5092248;28;20016;-60
2023/07/18 03:27:52;;;;;;;18.25;14.13;;;640.50;2432.00;;;;;;5078539;28;20497;-60
2023/07/18 03:30:18;;;;;;;15.43;13.82;;;640.50;2432.00;;;;;;5091972;28;20020;-60
2023/07/18 03:32:44;;;;;;;16.70;14.90;;;640.60;2432.00;;;;;;5091687;28;20027;-60
2023/07/18 03:35:14;;;;;;;16.52;14.75;;;640.60;2432.00;;;;;;5091419;28;20023;-60
2023/07/18 03:37:40;;;;;;;18.40;14.38;;;640.60;2432.00;;;;;;5091725;28;20404;-60
2023/07/18 03:40:06;;;;;;;17.33;14.68;;;640.70;2432.00;;;;;;5091809;28;20026;-61
2023/07/18 03:42:35;;;;;;;20.35;15.27;;;640.70;2432.00;;;;;;5091858;28;20107;-60
2023/07/18 03:45:01;;;;;;;19.17;14.60;;;640.90;2432.00;;;;;;5077375;28;20027;-60
2023/07/18 03:47:28;;;;;;;17.80;14.73;;;665.60;2432.00;;;;;;5091285;28;20547;-60
2023/07/18 03:49:53;;;;;;;16.80;14.95;;;665.60;2432.00;;;;;;5091479;28;20027;-63
2023/07/18 03:52:19;;;;;;;15.80;14.10;;;665.60;2432.00;;;;;;5091545;28;20724;-62
2023/07/18 03:54:45;;;;;;;16.38;14.80;;;640.90;2432.00;;;;;;5091294;28;20578;-62
2023/07/18 03:57:14;;;;;;;18.08;14.50;;;640.90;2432.00;;;;;;5086294;28;20040;-63
2023/07/18 03:59:40;;;;;;;17.35;15.43;;;640.90;2432.00;;;;;;5071000;28;20421;-64
2023/07/18 04:02:06;;;;;;;16.95;14.80;;;665.60;2432.00;;;;;;5075265;28;20153;-64
2023/07/18 04:04:31;;;;;;;19.17;15.02;;;665.70;2432.00;;;;;;5091102;28;20028;-65
2023/07/18 04:06:57;;;;;;;16.25;13.85;;;665.80;2432.00;;;;;;5078620;28;20382;-65
2023/07/18 04:09:23;;;;;;;17.73;14.82;;;665.90;2432.00;;;;;;5086712;28;20028;-65
2023/07/18 04:11:49;;;;;;;18.17;13.73;;;666.00;2432.00;;;;;;5091027;28;20114;-64
2023/07/18 04:14:14;;;;;;;14.95;13.50;;;666.10;2432.00;;;;;;5091142;28;20024;-65
2023/07/18 04:16:40;;;;;;;16.63;13.80;;;666.20;2432.00;;;;;;5090537;28;20410;-65
2023/07/18 04:19:08;;;;;;;18.98;13.82;;;666.40;2432.00;;;;;;5090504;28;20378;-64
2023/07/18 04:21:33;;;;;;;16.05;14.35;;;666.50;2432.00;;;;;;5091122;28;20107;-65
2023/07/18 04:23:59;;;;;;;18.10;14.10;;;691.20;2432.00;;;;;;5091065;28;20592;-65
2023/07/18 04:26:25;;;;;;;19.20;15.93;;;691.30;2432.00;;;;;;5091079;28;20355;-63
2023/07/18 04:28:51;;;;;;;15.50;13.88;;;691.40;2432.00;;;;;;5090753;28;20098;-64
2023/07/18 04:31:16;;;;;;;16.33;14.77;;;691.20;2432.00;;;;;;5077088;28;20158;-66
2023/07/18 04:33:42;;;;;;;15.63;14.00;;;691.40;2432.00;;;;;;5091350;28;20031;-65
2023/07/18 04:36:08;;;;;;;20.75;14.65;;;691.60;2432.00;;;;;;5090637;28;20028;-65
2023/07/18 04:38:35;;;;;;;25.92;14.18;;;691.80;2432.00;;;;;;5091150;28;20027;-65
2023/07/18 04:41:02;;;;;;;16.90;15.30;;;691.60;2432.00;;;;;;5090441;28;20042;-64
2023/07/18 04:43:28;;;;;;;16.00;14.07;;;691.70;2432.00;;;;;;5090574;28;20036;-65
2023/07/18 04:45:54;;;;;;;17.65;14.43;;;692.10;2432.00;;;;;;5090396;28;20008;-64
2023/07/18 04:48:20;;;;;;;18.17;13.88;;;768.20;2432.00;;;;;;5089982;28;20095;-64
2023/07/18 04:50:50;;;;;;;18.20;14.75;;;870.80;2304.00;;;;;;5089917;28;20403;-65
2023/07/18 04:53:16;;;;;;;17.25;14.20;;;;;;;;;;5090647;28;20043;-64
2023/07/18 04:55:42;;;;;;;13.77;12.57;;;;;;;;;;5089592;28;20020;-62
2023/07/18 04:58:08;;;;;;;15.05;13.52;;;921.60;2073.60;;;;;;5089232;28;20077;-64
2023/07/18 05:00:34;;;;;;;17.00;13.30;;;973.60;1766.40;;;;;;5089098;28;20020;-64
2023/07/18 05:03:00;;;;;;;14.77;13.25;;;999.30;1715.20;;;;;;5089741;28;20034;-66
2023/07/18 05:05:27;;;;;;;16.40;13.85;;;1024.10;1638.40;;;;;;5090131;28;20020;-65
2023/07/18 05:07:54;;;;;;;15.05;13.55;;;1024.70;1587.20;;;;;;5090235;28;20098;-65
2023/07/18 05:10:21;;;;;;;18.35;14.35;;;1049.80;1587.20;;;;;;5089431;28;20028;-65
2023/07/18 05:12:47;;;;;;;16.10;13.75;;;1050.00;1587.20;;;;;;5089520;28;20036;-65
2023/07/18 05:15:13;;;;;;;16.20;14.60;;;1050.50;1536.00;;;;;;5090156;28;20020;-65
2023/07/18 05:17:39;;;;;;;14.75;13.23;;;1075.80;1484.80;;;;;;5089408;28;20038;-66
2023/07/18 05:20:05;;;;;;;14.27;12.95;;;1100.90;1510.40;;;;;;5089743;28;20028;-65
2023/07/18 05:22:31;;;;;;;14.60;13.30;;;1101.30;1459.20;;;;;;5089462;28;20051;-65
2023/07/18 05:24:57;;;;;;;14.45;13.18;;;1101.10;1459.20;;;;;;5089407;28;20473;-66
2023/07/18 05:27:22;;;;;;;16.40;14.80;;;1101.70;1433.60;;;;;;5089720;28;20099;-65
2023/07/18 05:29:49;;;;;;;15.57;13.98;;;1126.70;1433.60;;;;;;5089514;28;20036;-66
2023/07/18 05:32:15;;;;;;;15.98;14.45;;;1126.50;1433.60;;;;;;5089642;28;20561;-65
2023/07/18 05:34:40;;;;;;;16.33;14.43;;;1127.10;1408.00;;;;;;5089293;28;20111;-66
2023/07/18 05:37:06;;;;;;;15.23;13.65;;;1152.00;1382.40;;;;;;5089499;28;20024;-65
2023/07/18 05:39:32;;;;;;;17.02;15.50;;;1152.60;1356.80;;;;;;5089763;28;20108;-65
2023/07/18 05:41:58;;;;;;;16.80;15.05;;;1177.70;1305.60;;;;;;5089212;28;20040;-66
2023/07/18 05:44:23;;;;;;;16.70;15.10;;;1152.70;1305.60;;;;;;5089479;28;20035;-65
2023/07/18 05:46:49;;;;;;;15.48;14.20;;;1177.70;1280.00;;;;;;5088893;28;20047;-66
2023/07/18 05:49:15;;;;;;;17.90;14.40;;;1178.50;1254.40;;;;;;5089460;28;20032;-66
2023/07/18 05:51:40;;;;;;;17.60;14.73;;;1203.40;1254.40;;;;;;5089287;28;20021;-66
2023/07/18 05:54:06;;;;;;;17.88;16.33;;;1203.80;1254.40;;;;;;5089479;28;20593;-66
2023/07/18 05:56:32;;;;;;;15.88;14.57;;;1203.90;1254.40;;;;;;5089586;28;20486;-66
2023/07/18 05:59:00;;;;;;;17.52;15.73;;;1203.80;1254.40;;;;;;5089315;28;20024;-65
2023/07/18 06:01:26;;;;;;;17.52;16.02;;;1204.10;1228.80;;;;;;5089636;28;20081;-65
2023/07/18 06:03:51;;;;;;;18.75;17.15;;;1229.40;1228.80;;;;;;5088677;28;20470;-65
2023/07/18 06:06:17;;;;;;;18.60;16.95;;;1229.70;1203.20;;;;;;5088849;28;20028;-65
2023/07/18 06:08:43;;;;;;;17.10;15.57;;;1229.50;1203.20;;;;;;5088975;28;20572;-66
2023/07/18 06:11:08;;;;;;;18.42;16.63;;;1254.40;1203.20;;;;;;5088721;28;20442;-66
2023/07/18 06:13:34;;;;;;;17.40;15.73;;;1255.00;1177.60;;;;;;5089100;28;20535;-65
2023/07/18 06:16:00;;;;;;;20.45;18.23;;;1280.40;1152.00;;;;;;5088665;28;20031;-65
2023/07/18 06:18:25;;;;;;;19.00;17.30;;;1280.00;1152.00;;;;;;5089011;28;20043;-66
2023/07/18 06:20:51;;;;;;;19.10;17.20;;;1280.00;1152.00;;;;;;5088761;28;20036;-65
2023/07/18 06:23:17;;;;;;;18.42;16.80;;;1255.00;1177.60;;;;;;5088763;28;20117;-66
2023/07/18 06:25:42;;;;;;;19.73;17.75;;;1280.90;1126.40;;;;;;5088925;28;20024;-66
2023/07/18 06:28:08;;;;;;;19.73;18.00;;;1280.90;1126.40;;;;;;5088905;28;20033;-66
2023/07/18 06:30:35;;;;;;;18.05;16.77;;;1305.70;1100.80;;;;;;5090054;28;20489;-65
2023/07/18 06:33:01;;;;;;;20.88;18.67;;;1305.90;1100.80;;;;;;5092673;28;20035;-65
2023/07/18 06:35:26;;;;;;;18.60;17.15;;;1306.50;1075.20;;;;;;5093070;28;20028;-65
2023/07/18 06:37:52;;;;;;;19.25;17.92;;;1306.20;1100.80;;;;;;5092890;28;20020;-65
2023/07/18 06:40:18;;;;;;;20.05;18.17;;;1305.70;1100.80;;;;;;5092780;28;20028;-66
2023/07/18 06:42:44;;;;;;;20.55;18.95;;;1331.20;1100.80;;;;;;5092936;28;20107;-66
2023/07/18 06:45:09;;;;;;;20.30;18.83;;;1331.90;1075.20;;;;;;5092725;28;20035;-66
2023/07/18 06:47:35;;;;;;;21.48;19.95;;;1331.70;1100.80;;;;;;5092611;28;20052;-65
2023/07/18 06:50:01;;;;;;;21.67;20.02;;;1331.90;1049.60;;;;;;5092662;28;20101;-65
2023/07/18 06:52:27;;;;;;;20.98;19.52;;;1331.90;1049.60;;;;;;5092746;28;20112;-66
2023/07/18 06:54:56;;;;;;;21.98;19.77;;;;;;;;;;5092386;28;20027;-66
2023/07/18 06:57:22;;;;;;;19.83;18.45;;;1356.80;1075.20;;;;;;5092829;28;20021;-66
2023/07/18 06:59:47;;;;;;;22.33;20.58;;;1357.10;1049.60;;;;;;5092515;28;20023;-66
2023/07/18 07:02:13;;;;;;;22.30;20.50;;;1382.60;1024.00;;;;;;5092643;28;20115;-66
2023/07/18 07:04:39;;;;;;;22.88;21.23;;;1382.40;1049.60;;;;;;5092278;28;20013;-67
2023/07/18 07:07:08;;;;;;;22.23;20.63;;;1382.60;1049.60;;;;;;5092643;28;20058;-66
2023/07/18 07:09:34;;;;;;;23.35;21.52;;;1382.40;1049.60;;;;;;5092157;28;20031;-66
2023/07/18 07:12:00;;;;;;;24.15;21.23;;;1382.40;1049.60;;;;;;5092056;28;20028;-67
2023/07/18 07:14:26;;;;;;;21.58;20.13;;;1382.40;1049.60;;;;;;5092467;28;20031;-66
2023/07/18 07:16:52;;;;;;;23.40;21.60;;;1382.40;1049.60;;;;;;5092060;28;20036;-66
2023/07/18 07:19:18;;;;;;;24.63;22.42;;;1382.40;1049.60;;;;;;5092015;28;20107;-67
2023/07/18 07:21:45;;;;;;;22.42;21.00;;;1382.60;1024.00;;;;;;5092304;28;20426;-67
2023/07/18 07:24:11;;;;;;;23.48;21.80;;;1357.10;1049.60;;;;;;5091763;28;20539;-67
2023/07/18 07:26:37;;;;;;;24.83;22.73;;;1382.90;998.40;;;;;;5092097;28;20046;-68
2023/07/18 07:29:05;;;;;;;24.15;22.58;;;1383.10;998.40;;;;;;5091866;28;20028;-67
2023/07/18 07:31:31;;;;;;;23.00;21.60;;;1383.10;998.40;;;;;;5091829;28;20474;-67
2023/07/18 07:33:57;;;;;;;23.83;22.27;;;1408.70;947.20;;;;;;5091763;28;20689;-68
2023/07/18 07:36:23;;;;;;;23.77;22.27;;;1408.70;972.80;;;;;;5092170;28;20095;-67
2023/07/18 07:38:49;;;;;;;24.52;22.88;;;1408.50;972.80;;;;;;5091592;28;20032;-66
2023/07/18 07:41:15;;;;;;;24.08;22.25;;;1383.30;998.40;;;;;;5092017;28;20056;-65
2023/07/18 07:43:40;;;;;;;25.52;23.67;;;1382.90;998.40;;;;;;5091294;28;20056;-67
2023/07/18 07:46:06;;;;;;;25.90;24.38;;;1408.20;972.80;;;;;;5091983;28;20107;-66
2023/07/18 07:48:32;;;;;;;28.80;26.88;;;1382.40;1024.00;;;;;;5091293;28;20379;-67
2023/07/18 07:51:00;;;;;;;25.52;23.80;;;1383.10;972.80;;;;;;5091634;28;20020;-68
2023/07/18 07:53:26;;;;;;;25.52;23.83;;;1408.40;972.80;;;;;;5091655;28;20036;-68
2023/07/18 07:55:52;;;;;;;25.88;24.17;;;1433.90;972.80;;;;;;5091472;28;20056;-68
2023/07/18 07:58:17;;;;;;;27.88;25.85;;;1459.30;972.80;;;;;;5091261;28;20059;-68
2023/07/18 08:00:43;;;;;;;27.35;25.65;;;1433.90;972.80;;;;;;5091551;28;20020;-68
2023/07/18 08:03:09;;;;;;;24.23;22.55;;;1459.30;947.20;;;;;;5090895;28;20052;-68
2023/07/18 08:05:35;;;;;;;26.40;24.60;;;1408.40;921.60;;;;;;5091514;28;20053;-67
2023/07/18 08:08:01;;;;;;;24.20;22.63;;;1434.10;921.60;;;;;;5090974;28;20489;-67
2023/07/18 08:10:27;;;;;;;27.33;25.23;;;1434.10;947.20;;;;;;5091295;28;20028;-69
2023/07/18 08:12:52;;;;;;;22.25;20.88;;;1459.30;921.60;;;;;;5091110;28;20498;-67
2023/07/18 08:15:19;;;;;;;22.95;20.92;;;1382.60;947.20;;;;;;5090954;28;20036;-67
2023/07/18 08:17:45;;;;;;;22.20;20.58;;;1331.70;947.20;;;;;;5090875;28;20039;-66
2023/07/18 08:20:12;;;;;;;21.40;19.63;;;1280.50;998.40;;;;;;5090797;28;20024;-67
2023/07/18 08:22:39;;;;;;;21.20;19.73;;;1306.20;972.80;;;;;;5090723;28;20057;-66
2023/07/18 08:25:05;;;;;;;19.30;18.10;;;1255.00;1049.60;;;;;;5090745;28;20026;-66
2023/07/18 08:27:30;;;;;;;18.17;16.98;;;1203.70;1075.20;;;;;;5090611;28;20020;-66
2023/07/18 08:29:56;;;;;;;17.25;15.75;;;1152.00;1228.80;;;;;;5090965;28;20020;-66
2023/07/18 08:32:22;;;;;;;16.20;14.88;;;1101.50;1228.80;;;;;;5090459;28;20028;-66
2023/07/18 08:34:47;;;;;;;15.32;14.07;;;1075.80;1203.20;;;;;;5090635;28;20023;-67
2023/07/18 08:37:13;;;;;;;14.80;13.70;;;1050.00;1254.40;;;;;;5090779;28;20028;-65
2023/07/18 08:39:39;;;;;;;14.50;13.10;;;1024.40;1280.00;;;;;;5090382;28;20020;-66
2023/07/18 08:42:06;;;;;;;12.25;11.07;;;1024.00;1305.60;;;;;;5090504;28;20455;-65
2023/07/18 08:44:34;;;;;;;12.60;11.20;;;998.60;1305.60;;;;;;5090688;28;20418;-66
2023/07/18 08:47:02;;;;;;;15.10;11.45;;;973.40;1331.20;;;;;;5089887;28;20570;-66
2023/07/18 08:49:30;;;;;;;12.93;11.73;;;973.50;1305.60;;;;;;5090393;28;20031;-65
2023/07/18 08:51:56;;;;;;;10.57;9.77;;;973.60;1331.20;;;;;;5090551;28;20115;-66
2023/07/18 08:54:22;;;;;;;10.60;9.52;;;973.70;1356.80;;;;;;5089572;28;20107;-66
2023/07/18 08:56:48;;;;;;;11.15;9.98;;;973.70;1331.20;;;;;;5090069;28;20077;-65
2023/07/18 08:59:14;;;;;;;9.95;9.15;;;973.60;1331.20;;;;;;5090513;28;20043;-64
2023/07/18 09:01:50;;;;;;;11.88;9.27;;;973.10;1331.20;;;;;;5089762;28;20024;-64
2023/07/18 09:04:17;;;;;;;10.85;9.75;;;948.10;1305.60;;;;;;5090259;28;20035;-65
2023/07/18 09:07:13;;;;;;;10.32;9.43;;;948.10;1305.60;;;;;;5090426;28;20016;-65
2023/07/18 09:09:46;;;;;;;11.18;10.02;;;973.00;1356.80;;;;;;5027566;28;20392;-65
2023/07/18 09:12:13;;;;;;;11.50;9.77;;;948.00;1305.60;;;;;;5027710;28;20435;-65
2023/07/18 09:14:39;;;;;;;10.73;9.52;;;947.70;1305.60;;;;;;5027308;28;20506;-65
2023/07/18 09:17:07;;;;;;;9.60;8.77;;;922.50;1331.20;;;;;;5027267;28;20033;-65
2023/07/18 09:19:39;;;;;;;11.10;10.10;;;922.20;1331.20;;;;;;5027322;28;20080;-66
2023/07/18 09:22:06;;;;;;;9.05;8.13;;;947.30;1356.80;;;;;;5027611;28;20112;-65
2023/07/18 09:24:35;;;;;;;11.90;9.98;;;947.80;1305.60;;;;;;5027556;28;20034;-65
2023/07/18 09:27:08;;;;;;;9.75;8.75;;;947.90;1382.40;;;;;;5027278;28;20049;-66
2023/07/18 09:29:34;;;;;;;12.63;9.15;;;947.30;1331.20;;;;;;5027516;28;20029;-65
2023/07/18 09:32:00;;;;;;;9.45;8.05;;;922.00;1382.40;;;;;;5026564;28;20022;-66
2023/07/18 09:34:27;;;;;;;12.75;9.07;;;922.00;1382.40;;;;;;5027312;28;20033;-65
2023/07/18 09:37:01;;;;;;;11.70;9.07;;;922.10;1382.40;;;;;;5026948;28;20021;-66
2023/07/18 09:39:27;;;;;;;9.50;8.60;;;922.30;1382.40;;;;;;5027272;28;20060;-65
2023/07/18 09:41:55;;;;;;;9.20;8.02;;;921.90;1382.40;;;;;;5027028;28;20026;-66
2023/07/18 09:44:23;;;;;;;9.05;8.23;;;922.00;1356.80;;;;;;5027167;28;20029;-66
2023/07/18 09:46:52;;;;;;;10.50;9.43;;;921.80;1408.00;;;;;;5077677;28;20044;-66
2023/07/18 09:49:19;;;;;;;9.30;8.40;;;922.30;1356.80;;;;;;5080120;28;20453;-66
2023/07/18 09:51:56;;;;;;;9.38;8.55;;;922.20;1408.00;;;;;;5085496;28;20077;-66
2023/07/18 09:54:23;;;;;;;10.10;9.18;;;922.40;1356.80;;;;;;5089681;28;20034;-66
2023/07/18 09:56:53;;;;;;;9.20;8.35;;;947.20;1331.20;;;;;;5089123;28;20064;-65
2023/07/18 09:59:20;;;;;;;9.30;8.43;;;922.30;1356.80;;;;;;5089278;28;20478;-65
2023/07/18 10:01:48;;;;;;;11.70;8.00;;;947.30;1433.60;;;;;;5088958;28;20043;-66
2023/07/18 10:04:15;;;;;;;10.10;9.20;;;947.40;1408.00;;;;;;5089076;28;20024;-66
2023/07/18 10:06:42;;;;;;;9.13;8.23;;;922.10;1382.40;;;;;;5089093;28;20020;-66
2023/07/18 10:09:08;;;;;;;11.30;9.40;;;922.20;1408.00;;;;;;5089215;28;20036;-67
2023/07/18 10:12:00;;;;;;;9.07;8.18;;;922.50;1433.60;;;;;;5089054;28;20100;-65
2023/07/18 10:14:29;;;;;;;9.73;8.77;;;922.20;1433.60;;;;;;5089326;28;20038;-66
2023/07/18 10:16:58;;;;;;;9.48;8.50;;;896.80;1408.00;;;;;;5089128;28;20031;-65
2023/07/18 10:19:24;;;;;;;8.82;7.75;;;921.80;1382.40;;;;;;5089250;28;20492;-66
2023/07/18 10:21:56;;;;;;;12.48;7.85;;;896.90;1382.40;;;;;;5088900;28;20386;-66
2023/07/18 10:24:24;;;;;;;8.95;8.10;;;896.70;1382.40;;;;;;5089401;28;20024;-66
2023/07/18 10:26:58;;;;;;;8.57;7.63;;;896.70;1433.60;;;;;;5088646;28;20028;-67
2023/07/18 10:29:23;;;;;;;7.63;6.78;;;896.60;1382.40;;;;;;5089359;28;20020;-65
2023/07/18 10:31:52;;;;;;;7.57;6.78;;;896.70;1305.60;;;;;;5088822;28;20459;-65
2023/07/18 10:34:18;;;;;;;7.75;6.82;;;921.60;1408.00;;;;;;5089109;28;20062;-66
2023/07/18 10:36:59;;;;;;;16.30;7.50;;;896.30;1331.20;;;;;;5088864;28;20024;-64
2023/07/18 10:39:39;;;;;;;7.57;6.80;;;896.80;1331.20;;;;;;5089066;28;20462;-66
2023/07/18 10:42:16;;;;;;;6.93;6.22;;;896.90;1382.40;;;;;;5088925;28;20074;-64
2023/07/18 10:44:41;;;;;;;7.47;6.65;;;921.60;1408.00;;;;;;5088633;28;20530;-65
2023/07/18 10:47:18;;;;;;;8.13;7.43;;;921.70;1408.00;;;;;;5088216;28;20044;-65
2023/07/18 10:49:45;;;;;;;8.50;7.40;;;896.30;1356.80;;;;;;5088366;28;20068;-64
2023/07/18 10:52:12;;;;;;;8.63;7.82;;;896.50;1382.40;;;;;;5076256;28;20020;-66
2023/07/18 10:54:50;;;;;;;10.40;7.40;;;896.80;1382.40;;;;;;5088616;28;20055;-65
2023/07/18 10:57:16;;;;;;;8.70;7.88;;;896.60;1382.40;;;;;;5089030;28;20070;-65
2023/07/18 10:59:45;;;;;;;8.57;7.78;;;896.60;1382.40;;;;;;5088622;28;20028;-65
2023/07/18 11:02:12;;;;;;;9.27;8.38;;;896.80;1408.00;;;;;;5088330;28;20099;-65
2023/07/18 11:04:38;;;;;;;8.48;7.78;;;896.60;1382.40;;;;;;5088597;28;20020;-65
2023/07/18 11:07:04;;;;;;;7.65;6.88;;;896.60;1382.40;;;;;;5088934;28;20028;-65
2023/07/18 11:09:31;;;;;;;10.40;8.65;;;896.80;1408.00;;;;;;5088332;28;20051;-65
2023/07/18 11:11:56;;;;;;;9.23;7.43;;;896.30;1408.00;;;;;;5088539;28;20103;-64
2023/07/18 11:14:23;;;;;;;8.25;7.45;;;896.70;1433.60;;;;;;5088477;28;20455;-65
2023/07/18 11:16:49;;;;;;;10.70;7.75;;;896.90;1433.60;;;;;;5089701;28;20097;-65
2023/07/18 11:19:15;;;;;;;9.02;8.23;;;921.60;1433.60;;;;;;5092229;28;20040;-65
2023/07/18 11:21:41;;;;;;;8.98;7.93;;;921.70;1382.40;;;;;;5092068;28;20063;-65
2023/07/18 11:24:08;;;;;;;24.45;9.30;;;896.70;1408.00;;;;;;5092036;28;20349;-65
2023/07/18 11:26:33;;;;;;;8.30;7.20;;;896.20;1408.00;;;;;;5092525;28;20374;-64
2023/07/18 11:29:00;;;;;;;9.02;7.63;;;896.60;1433.60;;;;;;5091843;28;20016;-65
2023/07/18 11:31:28;;;;;;;9.10;7.47;;;896.60;1408.00;;;;;;5092365;28;20035;-65
2023/07/18 11:33:55;;;;;;;9.20;7.78;;;896.70;1459.20;;;;;;5091733;28;20097;-65
2023/07/18 11:36:22;;;;;;;9.90;7.90;;;896.80;1433.60;;;;;;5091837;28;20028;-65
2023/07/18 11:38:50;;;;;;;10.95;7.63;;;896.40;1408.00;;;;;;5091710;28;20016;-65
2023/07/18 11:41:32;;;;;;;11.60;8.35;;;896.70;1459.20;;;;;;5091849;28;20023;-64
2023/07/18 11:43:58;;;;;;;12.00;7.80;;;896.40;1433.60;;;;;;5091442;28;20012;-64
2023/07/18 11:46:44;;;;;;;10.25;8.48;;;896.60;1408.00;;;;;;5091508;28;20032;-62
2023/07/18 11:49:15;;;;;;;8.70;7.32;;;896.70;1433.60;;;;;;5091488;28;20027;-64
2023/07/18 11:51:41;;;;;;;8.55;7.65;;;896.90;1433.60;;;;;;5090916;28;20466;-65
2023/07/18 11:54:07;;;;;;;7.85;7.05;;;896.90;1484.80;;;;;;5077634;28;20036;-64
2023/07/18 11:56:37;;;;;;;10.40;8.00;;;896.80;1459.20;;;;;;5091602;28;20213;-65
2023/07/18 11:59:03;;;;;;;8.95;8.15;;;921.60;1510.40;;;;;;5091561;28;20020;-64
2023/07/18 12:01:31;;;;;;;11.98;8.82;;;921.60;1459.20;;;;;;5081066;28;20173;-65
2023/07/18 12:03:56;;;;;;;10.98;8.85;;;896.90;1408.00;;;;;;5084231;28;20121;-65